createdAt,value
2022-11-27T00:01:11.189Z,8.85
2022-11-27T00:03:39.514Z,8.90
2022-11-27T00:06:09.923Z,9.48
2022-11-27T00:08:37.895Z,9.52
2022-11-27T00:11:08.594Z,8.20
2022-11-27T00:13:36.649Z,9.02
2022-11-27T00:16:05.933Z,9.38
2022-11-27T00:18:34.444Z,8.25
2022-11-27T00:21:04.753Z,9.45
2022-11-27T00:23:35.737Z,8.60
2022-11-27T00:26:04.164Z,9.57
2022-11-27T00:28:32.357Z,7.90
2022-11-27T00:31:01.188Z,8.25
2022-11-27T00:33:29.408Z,9.35
2022-11-27T00:35:57.409Z,8.25
2022-11-27T00:38:25.400Z,7.20
2022-11-27T00:40:54.813Z,8.80
2022-11-27T00:43:22.804Z,7.55
2022-11-27T00:45:50.904Z,8.15
2022-11-27T00:48:18.901Z,7.63
2022-11-27T00:50:46.858Z,8.07
2022-11-27T00:53:14.865Z,8.10
2022-11-27T00:55:42.853Z,7.63
2022-11-27T00:58:12.321Z,8.10
2022-11-27T01:00:40.299Z,7.72
2022-11-27T01:03:08.343Z,7.43
2022-11-27T01:05:37.760Z,7.03
2022-11-27T01:08:06.053Z,7.70
2022-11-27T01:10:34.051Z,7.15
2022-11-27T01:13:02.064Z,7.53
2022-11-27T01:15:31.482Z,6.57
2022-11-27T01:17:59.453Z,6.80
2022-11-27T01:20:27.461Z,6.57
2022-11-27T01:22:55.447Z,7.38
2022-11-27T01:25:26.925Z,7.10
2022-11-27T01:27:55.257Z,6.40
2022-11-27T01:30:23.319Z,6.90
2022-11-27T01:32:52.659Z,7.97
2022-11-27T01:35:20.623Z,6.28
2022-11-27T01:37:48.624Z,7.18
2022-11-27T01:40:17.035Z,7.13
2022-11-27T01:42:45.088Z,6.07
2022-11-27T01:45:16.308Z,7.07
2022-11-27T01:47:48.282Z,6.57
2022-11-27T01:50:22.426Z,6.32
2022-11-27T01:52:54.328Z,6.70
2022-11-27T01:55:26.808Z,7.03
2022-11-27T01:57:59.030Z,7.05
2022-11-27T02:00:27.329Z,6.88
2022-11-27T02:02:55.867Z,7.05
2022-11-27T02:05:28.583Z,6.88
2022-11-27T02:07:58.911Z,6.55
2022-11-27T02:10:37.247Z,6.82
2022-11-27T02:13:11.024Z,7.13
2022-11-27T02:15:45.923Z,7.45
2022-11-27T02:18:19.946Z,6.88
2022-11-27T02:20:55.458Z,6.50
2022-11-27T02:23:57.175Z,7.60
2022-11-27T02:26:54.600Z,7.45
2022-11-27T02:29:24.939Z,6.70
2022-11-27T02:31:58.396Z,6.97
2022-11-27T02:34:32.252Z,8.33
2022-11-27T02:37:05.757Z,6.85
2022-11-27T02:39:39.590Z,7.05
2022-11-27T02:42:12.911Z,6.90
2022-11-27T02:44:47.620Z,6.93
2022-11-27T02:47:16.530Z,7.77
2022-11-27T02:49:46.734Z,7.40
2022-11-27T02:52:18.382Z,7.43
2022-11-27T02:54:48.761Z,7.03
2022-11-27T02:57:18.637Z,6.67
2022-11-27T02:59:49.705Z,6.63
2022-11-27T03:02:24.087Z,7.30
2022-11-27T03:04:56.101Z,6.57
2022-11-27T03:07:29.200Z,7.00
2022-11-27T03:10:02.034Z,6.80
2022-11-27T03:12:30.188Z,7.00
2022-11-27T03:14:59.593Z,6.33
2022-11-27T03:17:37.805Z,6.57
2022-11-27T03:20:12.298Z,7.10
2022-11-27T03:22:40.457Z,7.07
2022-11-27T03:25:09.157Z,6.67
2022-11-27T03:27:41.874Z,7.17
2022-11-27T03:30:12.760Z,6.47
2022-11-27T03:32:40.863Z,6.50
2022-11-27T03:35:12.401Z,7.00
2022-11-27T03:37:40.662Z,6.80
2022-11-27T03:40:10.369Z,6.80
2022-11-27T03:42:50.493Z,6.37
2022-11-27T03:45:29.074Z,6.57
2022-11-27T03:48:10.530Z,6.37
2022-11-27T03:50:49.830Z,6.43
2022-11-27T03:53:24.588Z,7.67
2022-11-27T03:56:04.208Z,6.77
2022-11-27T03:58:38.120Z,7.40
2022-11-27T04:01:11.988Z,6.93
2022-11-27T04:03:40.303Z,6.87
2022-11-27T04:06:08.556Z,7.10
2022-11-27T04:08:36.584Z,6.13
2022-11-27T04:11:04.714Z,6.80
2022-11-27T04:13:33.030Z,7.03
2022-11-27T04:16:02.293Z,6.63
2022-11-27T04:18:32.180Z,6.53
2022-11-27T04:21:00.520Z,6.37
2022-11-27T04:23:28.619Z,6.17
2022-11-27T04:25:56.638Z,6.30
2022-11-27T04:28:24.718Z,6.43
2022-11-27T04:30:53.942Z,6.20
2022-11-27T04:33:22.058Z,5.90
2022-11-27T04:35:51.917Z,6.43
2022-11-27T04:38:20.233Z,6.87
2022-11-27T04:40:48.585Z,6.33
2022-11-27T04:43:16.644Z,6.83
2022-11-27T04:45:44.908Z,5.70
2022-11-27T04:48:12.967Z,6.47
2022-11-27T04:50:41.103Z,6.90
2022-11-27T04:53:10.486Z,6.83
2022-11-27T04:55:38.601Z,7.00
2022-11-27T04:58:06.620Z,6.97
2022-11-27T05:00:34.733Z,7.03
2022-11-27T05:03:02.941Z,6.53
2022-11-27T05:05:30.979Z,6.17
2022-11-27T05:07:59.193Z,6.73
2022-11-27T05:10:28.633Z,6.87
2022-11-27T05:12:56.620Z,6.60
2022-11-27T05:15:24.644Z,6.40
2022-11-27T05:17:52.686Z,5.70
2022-11-27T05:20:20.721Z,6.10
2022-11-27T05:22:49.709Z,6.60
2022-11-27T05:25:17.778Z,6.10
2022-11-27T05:27:47.231Z,6.83
2022-11-27T05:30:15.292Z,6.47
2022-11-27T05:32:43.298Z,6.93
2022-11-27T05:35:11.411Z,7.00
2022-11-27T05:37:39.376Z,6.40
2022-11-27T05:40:08.702Z,6.57
2022-11-27T05:42:36.844Z,6.83
2022-11-27T05:45:07.253Z,6.00
2022-11-27T05:47:35.333Z,6.40
2022-11-27T05:50:03.454Z,6.50
2022-11-27T05:52:31.480Z,6.77
2022-11-27T05:54:59.485Z,6.17
2022-11-27T05:57:28.232Z,6.40
2022-11-27T05:59:56.214Z,6.07
2022-11-27T06:02:29.351Z,7.27
2022-11-27T06:04:57.774Z,6.80
2022-11-27T06:07:25.903Z,6.43
2022-11-27T06:09:54.016Z,5.93
2022-11-27T06:12:22.020Z,6.47
2022-11-27T06:14:50.071Z,6.80
2022-11-27T06:17:18.074Z,6.07
2022-11-27T06:19:47.473Z,6.37
2022-11-27T06:22:15.544Z,6.70
2022-11-27T06:24:43.712Z,6.50
2022-11-27T06:27:11.879Z,5.90
2022-11-27T06:29:39.966Z,6.13
2022-11-27T06:32:08.094Z,6.33
2022-11-27T06:34:36.185Z,7.03
2022-11-27T06:37:10.393Z,6.63
2022-11-27T06:39:41.020Z,6.33
2022-11-27T06:42:09.213Z,6.60
2022-11-27T06:44:37.450Z,6.83
2022-11-27T06:47:05.680Z,6.43
2022-11-27T06:49:33.704Z,6.53
2022-11-27T06:52:02.143Z,6.23
2022-11-27T06:54:31.584Z,6.23
2022-11-27T06:56:59.616Z,6.70
2022-11-27T06:59:27.692Z,6.83
2022-11-27T07:01:55.763Z,6.80
2022-11-27T07:04:24.012Z,6.40
2022-11-27T07:06:52.061Z,6.97
2022-11-27T07:09:20.068Z,6.97
2022-11-27T07:11:49.494Z,6.30
2022-11-27T07:14:17.536Z,6.67
2022-11-27T07:16:45.678Z,6.43
2022-11-27T07:19:14.652Z,6.80
2022-11-27T07:21:42.636Z,6.80
2022-11-27T07:24:10.790Z,6.20
2022-11-27T07:26:38.755Z,6.37
2022-11-27T07:29:08.166Z,6.57
2022-11-27T07:31:36.226Z,6.50
2022-11-27T07:34:08.289Z,5.80
2022-11-27T07:36:39.812Z,6.93
2022-11-27T07:39:07.885Z,7.47
2022-11-27T07:41:35.894Z,6.50
2022-11-27T07:44:04.446Z,7.57
2022-11-27T07:46:33.941Z,6.83
2022-11-27T07:49:02.205Z,7.07
2022-11-27T07:51:30.645Z,6.07
2022-11-27T07:53:58.812Z,5.47
2022-11-27T07:56:27.452Z,6.60
2022-11-27T07:58:55.424Z,6.67
2022-11-27T08:01:23.626Z,6.97
2022-11-27T08:03:53.115Z,6.57
2022-11-27T08:06:24.035Z,6.90
2022-11-27T08:08:52.748Z,6.63
2022-11-27T08:11:23.965Z,6.57
2022-11-27T08:13:56.692Z,6.47
2022-11-27T08:16:25.276Z,6.77
2022-11-27T08:18:55.250Z,5.80
2022-11-27T08:21:23.836Z,5.97
2022-11-27T08:23:52.110Z,6.70
2022-11-27T08:26:20.944Z,6.80
2022-11-27T08:28:48.977Z,6.37
2022-11-27T08:31:17.184Z,6.53
2022-11-27T08:33:45.265Z,6.23
2022-11-27T08:36:18.151Z,7.10
2022-11-27T08:38:46.852Z,6.23
2022-11-27T08:41:14.913Z,6.43
2022-11-27T08:43:43.004Z,6.90
2022-11-27T08:46:11.588Z,6.33
2022-11-27T08:48:39.953Z,7.33
2022-11-27T08:51:09.532Z,6.50
2022-11-27T08:53:39.243Z,6.90
2022-11-27T08:56:09.024Z,6.47
2022-11-27T08:58:37.493Z,6.83
2022-11-27T09:01:10.500Z,7.00
2022-11-27T09:03:38.828Z,6.63
2022-11-27T09:06:11.835Z,5.93
2022-11-27T09:08:42.938Z,7.07
2022-11-27T09:11:12.336Z,7.33
2022-11-27T09:13:40.941Z,7.83
2022-11-27T09:16:11.913Z,7.30
2022-11-27T09:18:40.380Z,7.60
2022-11-27T09:21:10.741Z,6.50
2022-11-27T09:23:39.106Z,9.00
2022-11-27T09:26:11.169Z,22.20
2022-11-27T09:28:39.741Z,18.50
2022-11-27T09:31:09.349Z,6.80
2022-11-27T09:33:39.316Z,9.87
2022-11-27T09:36:08.477Z,7.50
2022-11-27T09:38:36.953Z,11.88
2022-11-27T09:41:19.600Z,19.35
2022-11-27T09:43:54.363Z,11.55
2022-11-27T09:46:27.701Z,7.67
2022-11-27T09:48:57.922Z,7.70
2022-11-27T09:51:34.069Z,8.38
2022-11-27T09:54:07.768Z,10.93
2022-11-27T09:56:37.764Z,7.50
2022-11-27T09:59:15.961Z,6.57
2022-11-27T10:01:49.382Z,7.60
2022-11-27T10:04:21.038Z,5.72
2022-11-27T10:07:09.573Z,5.80
2022-11-27T10:09:51.735Z,6.13
2022-11-27T10:12:31.434Z,5.60
2022-11-27T10:15:08.193Z,5.70
2022-11-27T10:17:42.001Z,6.03
2022-11-27T10:20:19.368Z,6.65
2022-11-27T10:22:54.983Z,7.95
2022-11-27T10:25:28.838Z,8.48
2022-11-27T10:28:11.752Z,6.40
2022-11-27T10:30:44.921Z,6.68
2022-11-27T10:33:18.511Z,6.38
2022-11-27T10:35:48.990Z,6.00
2022-11-27T10:38:21.563Z,5.82
2022-11-27T10:40:56.521Z,5.82
2022-11-27T10:43:27.071Z,6.40
2022-11-27T10:45:58.114Z,6.40
2022-11-27T10:48:27.830Z,6.25
2022-11-27T10:50:56.278Z,5.80
2022-11-27T10:53:28.316Z,6.28
2022-11-27T10:56:15.055Z,6.30
2022-11-27T10:58:48.290Z,6.28
2022-11-27T11:01:18.303Z,6.25
2022-11-27T11:03:47.264Z,6.80
2022-11-27T11:06:21.387Z,5.85
2022-11-27T11:08:50.780Z,6.75
2022-11-27T11:11:27.477Z,5.68
2022-11-27T11:13:57.014Z,6.35
2022-11-27T11:16:33.333Z,5.90
2022-11-27T11:19:03.176Z,6.43
2022-11-27T11:21:34.163Z,6.32
2022-11-27T11:24:04.382Z,7.03
2022-11-27T11:26:35.274Z,6.03
2022-11-27T11:29:08.202Z,6.82
2022-11-27T11:31:39.577Z,6.85
2022-11-27T11:34:20.474Z,8.18
2022-11-27T11:36:57.449Z,9.57
2022-11-27T11:39:28.543Z,8.63
2022-11-27T11:41:57.034Z,10.18
2022-11-27T11:44:34.290Z,9.25
2022-11-27T11:47:02.557Z,9.88
2022-11-27T11:49:32.920Z,8.05
2022-11-27T11:52:23.841Z,9.18
2022-11-27T11:55:08.873Z,13.00
2022-11-27T11:57:56.447Z,10.45
2022-11-27T12:00:38.711Z,10.23
2022-11-27T12:03:26.330Z,9.85
2022-11-27T12:06:18.919Z,7.93
2022-11-27T12:09:01.546Z,11.77
2022-11-27T12:11:38.465Z,7.97
2022-11-27T12:14:18.163Z,7.32
2022-11-27T12:17:03.570Z,9.23
2022-11-27T12:19:47.248Z,7.63
2022-11-27T12:22:26.736Z,10.55
2022-11-27T12:25:03.793Z,10.77
2022-11-27T12:27:40.907Z,15.85
2022-11-27T12:30:17.690Z,13.07
2022-11-27T12:33:15.380Z,19.08
2022-11-27T12:35:50.531Z,10.90
2022-11-27T12:38:37.967Z,12.68
2022-11-27T12:41:39.809Z,9.98
2022-11-27T12:44:19.132Z,25.23
2022-11-27T12:46:54.733Z,14.18
2022-11-27T12:49:27.099Z,10.82
2022-11-27T12:52:02.465Z,10.55
2022-11-27T12:54:33.955Z,35.28
2022-11-27T12:57:07.416Z,25.23
2022-11-27T12:59:42.537Z,22.33
2022-11-27T13:02:25.670Z,25.63
2022-11-27T13:04:58.701Z,20.65
2022-11-27T13:07:38.525Z,20.90
2022-11-27T13:10:13.785Z,13.35
2022-11-27T13:12:47.580Z,11.20
2022-11-27T13:15:24.445Z,14.27
2022-11-27T13:17:58.937Z,12.65
2022-11-27T13:20:34.788Z,16.15
2022-11-27T13:23:04.229Z,9.57
2022-11-27T13:25:35.965Z,9.93
2022-11-27T13:28:05.819Z,9.50
2022-11-27T13:30:37.813Z,9.65
2022-11-27T13:33:07.906Z,9.68
2022-11-27T13:35:40.034Z,9.88
2022-11-27T13:38:12.856Z,9.73
2022-11-27T13:40:44.412Z,10.80
2022-11-27T13:43:28.858Z,11.38
2022-11-27T13:46:04.405Z,8.65
2022-11-27T13:48:36.267Z,9.35
2022-11-27T13:51:06.957Z,9.23
2022-11-27T13:53:38.492Z,9.57
2022-11-27T13:56:07.593Z,9.82
2022-11-27T13:58:37.608Z,10.05
2022-11-27T14:01:18.276Z,9.45
2022-11-27T14:03:47.061Z,9.82
2022-11-27T14:06:27.238Z,10.35
2022-11-27T14:08:59.590Z,9.50
2022-11-27T14:11:35.210Z,8.90
2022-11-27T14:14:12.889Z,8.95
2022-11-27T14:16:42.569Z,9.23
2022-11-27T14:19:30.668Z,9.20
2022-11-27T14:22:01.744Z,9.65
2022-11-27T14:24:41.296Z,9.40
2022-11-27T14:27:18.469Z,9.57
2022-11-27T14:29:46.805Z,9.02
2022-11-27T14:32:16.775Z,9.30
2022-11-27T14:34:45.668Z,9.60
2022-11-27T14:37:24.992Z,9.38
2022-11-27T14:39:54.985Z,9.35
2022-11-27T14:42:28.451Z,9.63
2022-11-27T14:45:06.576Z,10.50
2022-11-27T14:47:35.079Z,9.77
2022-11-27T14:50:04.749Z,10.27
2022-11-27T14:52:32.977Z,10.38
2022-11-27T14:55:03.489Z,10.60
2022-11-27T14:57:32.411Z,9.80
2022-11-27T15:03:09.935Z,10.32
2022-11-27T15:05:39.647Z,9.77
2022-11-27T15:08:10.770Z,9.75
2022-11-27T15:10:42.622Z,9.63
2022-11-27T15:13:27.986Z,9.23
2022-11-27T15:16:01.080Z,9.50
2022-11-27T15:18:31.420Z,9.48
2022-11-27T15:21:00.988Z,10.60
2022-11-27T15:23:30.729Z,10.10
2022-11-27T15:26:15.193Z,9.32
2022-11-27T15:28:51.286Z,10.23
2022-11-27T15:31:27.423Z,10.18
2022-11-27T15:34:04.477Z,10.30
2022-11-27T15:36:39.516Z,10.25
2022-11-27T15:39:23.021Z,10.02
2022-11-27T15:41:55.038Z,9.90
2022-11-27T15:44:24.082Z,10.02
2022-11-27T15:46:52.957Z,10.63
2022-11-27T15:49:22.042Z,10.82
2022-11-27T15:51:50.824Z,10.05
2022-11-27T15:54:19.848Z,12.65
2022-11-27T15:56:48.230Z,11.20
2022-11-27T15:59:20.619Z,9.48
2022-11-27T16:01:49.926Z,9.65
2022-11-27T16:04:18.311Z,9.90
2022-11-27T16:06:46.639Z,9.85
2022-11-27T16:09:14.951Z,10.18
2022-11-27T16:11:43.714Z,10.13
2022-11-27T16:14:12.747Z,10.15
2022-11-27T16:16:42.555Z,10.18
2022-11-27T16:19:12.359Z,10.02
2022-11-27T16:21:40.677Z,10.55
2022-11-27T16:24:12.555Z,10.82
2022-11-27T16:26:41.132Z,13.75
2022-11-27T16:29:11.154Z,10.82
2022-11-27T16:31:39.596Z,10.73
2022-11-27T16:34:10.353Z,13.50
2022-11-27T16:36:43.782Z,11.27
2022-11-27T16:39:13.923Z,13.02
2022-11-27T16:41:42.189Z,12.02
2022-11-27T16:44:12.232Z,11.43
2022-11-27T16:46:43.796Z,11.95
2022-11-27T16:49:14.256Z,11.05
2022-11-27T16:51:43.217Z,13.88
2022-11-27T16:54:14.983Z,13.43
2022-11-27T16:56:44.486Z,11.25
2022-11-27T16:59:15.637Z,11.35
2022-11-27T17:01:45.273Z,10.07
2022-11-27T17:04:19.674Z,10.38
2022-11-27T17:06:49.131Z,11.27
2022-11-27T17:09:17.902Z,10.70
2022-11-27T17:11:49.380Z,10.75
2022-11-27T17:14:20.450Z,9.80
2022-11-27T17:16:50.216Z,14.80
2022-11-27T17:19:23.392Z,18.23
2022-11-27T17:21:51.758Z,12.13
2022-11-27T17:24:21.219Z,10.93
2022-11-27T17:26:53.416Z,10.88
2022-11-27T17:29:24.570Z,10.57
2022-11-27T17:31:52.964Z,10.93
2022-11-27T17:34:22.658Z,12.27
2022-11-27T17:36:53.855Z,12.80
2022-11-27T17:39:22.557Z,11.55
2022-11-27T17:41:50.933Z,11.02
2022-11-27T17:44:19.261Z,11.65
2022-11-27T17:46:50.134Z,11.48
2022-11-27T17:49:22.060Z,10.43
2022-11-27T17:51:52.802Z,10.30
2022-11-27T17:54:21.897Z,11.43
2022-11-27T17:56:51.654Z,11.60
2022-11-27T17:59:20.744Z,11.57
2022-11-27T18:01:51.522Z,11.27
2022-11-27T18:04:20.053Z,11.32
2022-11-27T18:06:48.697Z,10.95
2022-11-27T18:09:18.791Z,10.13
2022-11-27T18:11:47.266Z,10.98
2022-11-27T18:14:16.797Z,10.82
2022-11-27T18:16:45.226Z,10.80
2022-11-27T18:19:13.500Z,10.70
2022-11-27T18:21:41.895Z,10.40
2022-11-27T18:24:25.833Z,10.15
2022-11-27T18:27:11.789Z,9.63
2022-11-27T18:29:42.656Z,11.35
2022-11-27T18:32:12.553Z,11.05
2022-11-27T18:34:41.759Z,10.27
2022-11-27T18:37:10.812Z,10.48
2022-11-27T18:39:40.211Z,10.43
2022-11-27T18:42:10.319Z,9.68
2022-11-27T18:44:44.332Z,10.93
2022-11-27T18:47:14.696Z,9.98
2022-11-27T18:49:45.383Z,9.38
2022-11-27T18:52:14.171Z,10.45
2022-11-27T18:54:44.256Z,9.70
2022-11-27T18:57:14.442Z,9.18
2022-11-27T18:59:44.861Z,9.30
2022-11-27T19:02:14.216Z,9.75
2022-11-27T19:04:44.349Z,10.43
2022-11-27T19:07:12.932Z,10.35
2022-11-27T19:09:41.700Z,10.07
2022-11-27T19:12:10.230Z,10.15
2022-11-27T19:14:40.572Z,9.48
2022-11-27T19:17:09.430Z,9.48
2022-11-27T19:19:54.582Z,9.93
2022-11-27T19:22:23.351Z,9.90
2022-11-27T19:24:51.805Z,9.75
2022-11-27T19:27:20.368Z,9.35
2022-11-27T19:29:50.902Z,10.02
2022-11-27T19:32:19.346Z,10.43
2022-11-27T19:34:47.739Z,8.82
2022-11-27T19:37:43.865Z,9.57
2022-11-27T19:40:13.442Z,8.88
2022-11-27T19:42:41.866Z,9.35
2022-11-27T19:45:11.780Z,9.50
2022-11-27T19:47:40.071Z,9.30
2022-11-27T19:50:09.363Z,10.43
2022-11-27T19:52:38.033Z,10.77
2022-11-27T19:55:07.059Z,9.52
2022-11-27T19:57:35.412Z,11.27
2022-11-27T20:00:04.892Z,14.02
2022-11-27T20:02:45.071Z,9.07
2022-11-27T20:05:13.797Z,15.57
2022-11-27T20:07:42.224Z,9.88
2022-11-27T20:10:11.938Z,12.40
2022-11-27T20:12:40.276Z,13.27
2022-11-27T20:15:14.336Z,11.25
2022-11-27T20:17:44.901Z,11.82
2022-11-27T20:20:13.856Z,9.65
2022-11-27T20:22:42.124Z,12.40
2022-11-27T20:25:25.767Z,7.90
2022-11-27T20:27:54.331Z,8.32
2022-11-27T20:30:22.643Z,7.63
2022-11-27T20:32:54.710Z,7.82
2022-11-27T20:35:23.463Z,8.13
2022-11-27T20:37:51.756Z,7.85
2022-11-27T20:40:22.468Z,7.63
2022-11-27T20:42:51.832Z,7.53
2022-11-27T20:45:20.620Z,7.30
2022-11-27T20:47:50.621Z,7.70
2022-11-27T20:50:21.915Z,7.40
2022-11-27T20:52:50.188Z,6.97
2022-11-27T20:55:19.637Z,6.45
2022-11-27T20:57:52.024Z,6.95
2022-11-27T21:00:24.165Z,7.05
2022-11-27T21:02:52.462Z,6.72
2022-11-27T21:05:22.199Z,7.20
2022-11-27T21:07:50.575Z,6.95
2022-11-27T21:10:20.134Z,6.18
2022-11-27T21:12:48.440Z,5.82
2022-11-27T21:15:17.441Z,6.28
2022-11-27T21:17:46.061Z,5.65
2022-11-27T21:20:14.847Z,5.90
2022-11-27T21:22:44.240Z,5.95
2022-11-27T21:25:12.312Z,5.50
2022-11-27T21:27:40.345Z,6.15
2022-11-27T21:30:09.555Z,5.75
2022-11-27T21:32:37.592Z,5.38
2022-11-27T21:35:06.317Z,5.60
2022-11-27T21:37:34.469Z,5.20
2022-11-27T21:40:04.489Z,6.05
2022-11-27T21:42:32.980Z,5.55
2022-11-27T21:45:01.179Z,5.65
2022-11-27T21:47:29.473Z,5.68
2022-11-27T21:49:57.668Z,5.82
2022-11-27T21:52:25.686Z,5.38
2022-11-27T21:54:53.735Z,5.72
2022-11-27T21:57:23.399Z,5.22
2022-11-27T21:59:51.427Z,5.78
2022-11-27T22:02:19.471Z,5.43
2022-11-27T22:04:48.064Z,5.55
2022-11-27T22:07:16.152Z,5.90
2022-11-27T22:09:44.216Z,5.82
2022-11-27T22:12:12.221Z,5.38
2022-11-27T22:14:43.360Z,5.70
2022-11-27T22:17:11.751Z,5.43
2022-11-27T22:19:42.385Z,5.50
2022-11-27T22:22:10.540Z,5.35
2022-11-27T22:24:39.542Z,5.50
2022-11-27T22:27:08.131Z,5.45
2022-11-27T22:29:36.505Z,5.35
2022-11-27T22:32:08.060Z,6.05
2022-11-27T22:34:36.573Z,5.10
2022-11-27T22:37:05.964Z,5.10
2022-11-27T22:39:34.607Z,5.45
2022-11-27T22:42:03.528Z,6.15
2022-11-27T22:44:31.583Z,5.05
2022-11-27T22:46:59.562Z,5.55
2022-11-27T22:49:29.216Z,5.50
2022-11-27T22:51:57.661Z,5.75
2022-11-27T22:54:25.739Z,5.78
2022-11-27T22:56:55.753Z,5.18
2022-11-27T22:59:32.194Z,5.53
2022-11-27T23:02:01.233Z,6.20
2022-11-27T23:04:30.715Z,5.75
2022-11-27T23:06:59.088Z,5.15
2022-11-27T23:09:27.361Z,5.28
2022-11-27T23:11:58.079Z,5.40
2022-11-27T23:14:26.581Z,5.70
2022-11-27T23:16:54.708Z,5.63
2022-11-27T23:19:23.019Z,5.30
2022-11-27T23:21:52.553Z,6.00
2022-11-27T23:24:20.958Z,5.82
2022-11-27T23:26:49.310Z,5.90
2022-11-27T23:29:17.349Z,5.63
2022-11-27T23:31:45.434Z,5.82
2022-11-27T23:34:15.924Z,5.63
2022-11-27T23:36:44.205Z,6.18
2022-11-27T23:39:14.888Z,5.80
2022-11-27T23:41:44.023Z,5.65
2022-11-27T23:44:12.233Z,5.93
2022-11-27T23:46:40.604Z,5.30
2022-11-27T23:49:08.953Z,6.13
2022-11-27T23:51:37.465Z,5.93
2022-11-27T23:54:09.008Z,6.13
2022-11-27T23:56:40.822Z,6.28
2022-11-27T23:59:08.921Z,6.00
